sensor_id;sensor_type;location;lat;lon;timestamp;P1;durP1;ratioP1;P2;durP2;ratioP2
43529;SDS011;55654;50.966;6.878;2024-01-07T00:00:51;109.80;;;36.80;;
43529;SDS011;55654;50.966;6.878;2024-01-07T00:03:21;109.43;;;39.20;;
43529;SDS011;55654;50.966;6.878;2024-01-07T00:05:47;109.13;;;37.30;;
43529;SDS011;55654;50.966;6.878;2024-01-07T00:08:13;115.90;;;37.77;;
43529;SDS011;55654;50.966;6.878;2024-01-07T00:10:42;107.30;;;36.77;;
43529;SDS011;55654;50.966;6.878;2024-01-07T00:13:08;99.07;;;35.87;;
43529;SDS011;55654;50.966;6.878;2024-01-07T00:15:36;97.23;;;35.73;;
43529;SDS011;55654;50.966;6.878;2024-01-07T00:18:02;96.43;;;34.43;;
43529;SDS011;55654;50.966;6.878;2024-01-07T00:20:28;87.47;;;32.73;;
43529;SDS011;55654;50.966;6.878;2024-01-07T00:22:54;81.50;;;32.43;;
43529;SDS011;55654;50.966;6.878;2024-01-07T00:25:21;88.67;;;32.30;;
43529;SDS011;55654;50.966;6.878;2024-01-07T00:27:47;79.33;;;30.27;;
43529;SDS011;55654;50.966;6.878;2024-01-07T00:30:15;83.73;;;31.63;;
43529;SDS011;55654;50.966;6.878;2024-01-07T00:32:41;74.77;;;31.33;;
43529;SDS011;55654;50.966;6.878;2024-01-07T00:35:10;78.70;;;30.40;;
43529;SDS011;55654;50.966;6.878;2024-01-07T00:37:38;69.90;;;28.50;;
43529;SDS011;55654;50.966;6.878;2024-01-07T00:40:04;69.80;;;28.00;;
43529;SDS011;55654;50.966;6.878;2024-01-07T00:42:30;71.30;;;29.13;;
43529;SDS011;55654;50.966;6.878;2024-01-07T00:44:56;65.33;;;27.63;;
43529;SDS011;55654;50.966;6.878;2024-01-07T00:47:22;76.03;;;29.87;;
43529;SDS011;55654;50.966;6.878;2024-01-07T00:49:49;66.30;;;27.63;;
43529;SDS011;55654;50.966;6.878;2024-01-07T00:52:15;72.33;;;28.60;;
43529;SDS011;55654;50.966;6.878;2024-01-07T00:54:41;76.17;;;29.40;;
43529;SDS011;55654;50.966;6.878;2024-01-07T00:57:07;64.67;;;26.97;;
43529;SDS011;55654;50.966;6.878;2024-01-07T00:59:33;66.40;;;27.43;;
43529;SDS011;55654;50.966;6.878;2024-01-07T01:02:04;59.83;;;25.50;;
43529;SDS011;55654;50.966;6.878;2024-01-07T01:04:32;53.20;;;23.43;;
43529;SDS011;55654;50.966;6.878;2024-01-07T01:06:59;57.23;;;26.00;;
43529;SDS011;55654;50.966;6.878;2024-01-07T01:09:35;50.57;;;22.33;;
43529;SDS011;55654;50.966;6.878;2024-01-07T01:12:01;40.63;;;19.70;;
43529;SDS011;55654;50.966;6.878;2024-01-07T01:14:27;43.40;;;19.57;;
43529;SDS011;55654;50.966;6.878;2024-01-07T01:16:53;39.30;;;17.83;;
43529;SDS011;55654;50.966;6.878;2024-01-07T01:19:20;31.93;;;15.83;;
43529;SDS011;55654;50.966;6.878;2024-01-07T01:21:46;31.77;;;15.63;;
43529;SDS011;55654;50.966;6.878;2024-01-07T01:24:12;34.57;;;16.63;;
43529;SDS011;55654;50.966;6.878;2024-01-07T01:26:38;33.47;;;14.80;;
43529;SDS011;55654;50.966;6.878;2024-01-07T01:29:10;27.73;;;14.03;;
43529;SDS011;55654;50.966;6.878;2024-01-07T01:31:36;29.33;;;14.83;;
43529;SDS011;55654;50.966;6.878;2024-01-07T01:34:02;23.80;;;12.63;;
43529;SDS011;55654;50.966;6.878;2024-01-07T01:36:30;26.83;;;13.33;;
43529;SDS011;55654;50.966;6.878;2024-01-07T01:38:56;23.63;;;12.30;;
43529;SDS011;55654;50.966;6.878;2024-01-07T01:41:23;27.00;;;14.03;;
43529;SDS011;55654;50.966;6.878;2024-01-07T01:43:49;28.03;;;12.63;;
43529;SDS011;55654;50.966;6.878;2024-01-07T01:46:15;21.73;;;11.77;;
43529;SDS011;55654;50.966;6.878;2024-01-07T01:48:44;21.93;;;11.93;;
43529;SDS011;55654;50.966;6.878;2024-01-07T01:51:10;21.10;;;10.50;;
43529;SDS011;55654;50.966;6.878;2024-01-07T01:53:42;20.33;;;11.27;;
43529;SDS011;55654;50.966;6.878;2024-01-07T01:56:10;24.95;;;12.75;;
43529;SDS011;55654;50.966;6.878;2024-01-07T01:58:39;23.83;;;11.90;;
43529;SDS011;55654;50.966;6.878;2024-01-07T02:01:06;21.10;;;11.50;;
43529;SDS011;55654;50.966;6.878;2024-01-07T02:03:38;24.43;;;11.87;;
43529;SDS011;55654;50.966;6.878;2024-01-07T02:06:04;20.52;;;11.57;;
43529;SDS011;55654;50.966;6.878;2024-01-07T02:08:30;21.10;;;11.43;;
43529;SDS011;55654;50.966;6.878;2024-01-07T02:16:49;21.37;;;11.63;;
43529;SDS011;55654;50.966;6.878;2024-01-07T02:19:15;19.93;;;11.23;;
43529;SDS011;55654;50.966;6.878;2024-01-07T02:21:41;26.00;;;12.60;;
43529;SDS011;55654;50.966;6.878;2024-01-07T02:24:07;23.77;;;11.83;;
43529;SDS011;55654;50.966;6.878;2024-01-07T02:26:40;22.40;;;11.87;;
43529;SDS011;55654;50.966;6.878;2024-01-07T02:29:06;25.20;;;11.53;;
43529;SDS011;55654;50.966;6.878;2024-01-07T02:31:32;20.60;;;11.60;;
43529;SDS011;55654;50.966;6.878;2024-01-07T02:33:58;25.20;;;13.13;;
43529;SDS011;55654;50.966;6.878;2024-01-07T02:36:24;23.13;;;12.13;;
43529;SDS011;55654;50.966;6.878;2024-01-07T02:38:50;24.63;;;12.40;;
43529;SDS011;55654;50.966;6.878;2024-01-07T02:41:16;23.67;;;12.70;;
43529;SDS011;55654;50.966;6.878;2024-01-07T02:43:42;24.97;;;13.50;;
43529;SDS011;55654;50.966;6.878;2024-01-07T02:46:08;26.23;;;13.30;;
43529;SDS011;55654;50.966;6.878;2024-01-07T02:48:34;27.20;;;14.43;;
43529;SDS011;55654;50.966;6.878;2024-01-07T02:51:00;24.03;;;12.87;;
43529;SDS011;55654;50.966;6.878;2024-01-07T02:53:28;24.77;;;13.90;;
43529;SDS011;55654;50.966;6.878;2024-01-07T02:55:54;23.40;;;13.40;;
43529;SDS011;55654;50.966;6.878;2024-01-07T02:58:20;25.10;;;14.00;;
43529;SDS011;55654;50.966;6.878;2024-01-07T03:00:46;23.97;;;13.33;;
43529;SDS011;55654;50.966;6.878;2024-01-07T03:03:12;26.83;;;13.97;;
43529;SDS011;55654;50.966;6.878;2024-01-07T03:05:41;24.30;;;12.90;;
43529;SDS011;55654;50.966;6.878;2024-01-07T03:08:07;22.53;;;12.47;;
43529;SDS011;55654;50.966;6.878;2024-01-07T03:10:34;27.53;;;13.47;;
43529;SDS011;55654;50.966;6.878;2024-01-07T03:13:00;24.37;;;13.90;;
43529;SDS011;55654;50.966;6.878;2024-01-07T03:15:28;22.50;;;13.07;;
43529;SDS011;55654;50.966;6.878;2024-01-07T03:17:54;24.17;;;12.40;;
43529;SDS011;55654;50.966;6.878;2024-01-07T03:20:20;22.57;;;13.90;;
43529;SDS011;55654;50.966;6.878;2024-01-07T03:22:46;21.73;;;12.97;;
43529;SDS011;55654;50.966;6.878;2024-01-07T03:25:12;22.73;;;12.97;;
43529;SDS011;55654;50.966;6.878;2024-01-07T03:27:38;25.83;;;12.90;;
43529;SDS011;55654;50.966;6.878;2024-01-07T03:30:07;21.77;;;13.80;;
43529;SDS011;55654;50.966;6.878;2024-01-07T03:32:35;26.07;;;14.17;;
43529;SDS011;55654;50.966;6.878;2024-01-07T03:35:02;28.83;;;14.67;;
43529;SDS011;55654;50.966;6.878;2024-01-07T03:37:28;25.70;;;14.03;;
43529;SDS011;55654;50.966;6.878;2024-01-07T03:39:54;26.83;;;15.33;;
43529;SDS011;55654;50.966;6.878;2024-01-07T03:42:20;32.80;;;15.67;;
43529;SDS011;55654;50.966;6.878;2024-01-07T03:44:48;31.37;;;16.10;;
43529;SDS011;55654;50.966;6.878;2024-01-07T03:47:14;26.27;;;13.90;;
43529;SDS011;55654;50.966;6.878;2024-01-07T03:49:41;26.70;;;15.77;;
43529;SDS011;55654;50.966;6.878;2024-01-07T03:52:07;32.77;;;16.43;;
43529;SDS011;55654;50.966;6.878;2024-01-07T03:54:33;31.00;;;15.53;;
43529;SDS011;55654;50.966;6.878;2024-01-07T03:56:59;31.77;;;16.17;;
43529;SDS011;55654;50.966;6.878;2024-01-07T03:59:25;35.23;;;18.03;;
43529;SDS011;55654;50.966;6.878;2024-01-07T04:01:55;35.03;;;17.37;;
43529;SDS011;55654;50.966;6.878;2024-01-07T04:04:21;37.47;;;18.67;;
43529;SDS011;55654;50.966;6.878;2024-01-07T04:06:47;37.30;;;17.63;;
43529;SDS011;55654;50.966;6.878;2024-01-07T04:09:13;40.60;;;19.47;;
43529;SDS011;55654;50.966;6.878;2024-01-07T04:11:42;39.10;;;19.27;;
43529;SDS011;55654;50.966;6.878;2024-01-07T04:14:09;39.60;;;19.90;;
43529;SDS011;55654;50.966;6.878;2024-01-07T04:16:35;37.10;;;18.30;;
43529;SDS011;55654;50.966;6.878;2024-01-07T04:19:01;34.27;;;18.40;;
43529;SDS011;55654;50.966;6.878;2024-01-07T04:21:27;38.23;;;17.10;;
43529;SDS011;55654;50.966;6.878;2024-01-07T04:23:55;41.43;;;18.27;;
43529;SDS011;55654;50.966;6.878;2024-01-07T04:26:21;38.33;;;18.90;;
43529;SDS011;55654;50.966;6.878;2024-01-07T04:28:47;35.67;;;18.80;;
43529;SDS011;55654;50.966;6.878;2024-01-07T04:31:13;43.47;;;20.83;;
43529;SDS011;55654;50.966;6.878;2024-01-07T04:33:39;44.90;;;20.70;;
43529;SDS011;55654;50.966;6.878;2024-01-07T04:36:05;41.23;;;20.00;;
43529;SDS011;55654;50.966;6.878;2024-01-07T04:38:31;41.23;;;20.60;;
43529;SDS011;55654;50.966;6.878;2024-01-07T04:40:57;40.80;;;20.20;;
43529;SDS011;55654;50.966;6.878;2024-01-07T04:43:23;35.37;;;17.17;;
43529;SDS011;55654;50.966;6.878;2024-01-07T04:49:00;30.73;;;15.87;;
43529;SDS011;55654;50.966;6.878;2024-01-07T04:51:26;34.17;;;17.87;;
43529;SDS011;55654;50.966;6.878;2024-01-07T04:53:52;31.03;;;16.07;;
43529;SDS011;55654;50.966;6.878;2024-01-07T04:56:18;31.10;;;16.50;;
43529;SDS011;55654;50.966;6.878;2024-01-07T04:58:44;29.47;;;16.27;;
43529;SDS011;55654;50.966;6.878;2024-01-07T05:01:10;30.50;;;16.27;;
43529;SDS011;55654;50.966;6.878;2024-01-07T05:03:36;29.97;;;16.27;;
43529;SDS011;55654;50.966;6.878;2024-01-07T05:06:03;36.97;;;18.73;;
43529;SDS011;55654;50.966;6.878;2024-01-07T05:08:29;34.93;;;17.27;;
43529;SDS011;55654;50.966;6.878;2024-01-07T05:10:55;32.30;;;16.83;;
43529;SDS011;55654;50.966;6.878;2024-01-07T05:13:21;33.73;;;19.47;;
43529;SDS011;55654;50.966;6.878;2024-01-07T05:15:47;36.93;;;17.27;;
43529;SDS011;55654;50.966;6.878;2024-01-07T05:18:20;38.30;;;19.50;;
43529;SDS011;55654;50.966;6.878;2024-01-07T05:20:48;37.63;;;18.73;;
43529;SDS011;55654;50.966;6.878;2024-01-07T05:23:14;39.53;;;21.73;;
43529;SDS011;55654;50.966;6.878;2024-01-07T05:25:44;38.87;;;18.90;;
43529;SDS011;55654;50.966;6.878;2024-01-07T05:28:12;32.70;;;19.07;;
43529;SDS011;55654;50.966;6.878;2024-01-07T05:30:38;42.20;;;20.77;;
43529;SDS011;55654;50.966;6.878;2024-01-07T05:33:05;35.40;;;19.77;;
43529;SDS011;55654;50.966;6.878;2024-01-07T05:35:31;40.47;;;19.60;;
43529;SDS011;55654;50.966;6.878;2024-01-07T05:37:57;38.60;;;20.50;;
43529;SDS011;55654;50.966;6.878;2024-01-07T05:40:23;43.37;;;20.83;;
43529;SDS011;55654;50.966;6.878;2024-01-07T05:42:49;35.40;;;19.43;;
43529;SDS011;55654;50.966;6.878;2024-01-07T05:45:15;35.13;;;18.80;;
43529;SDS011;55654;50.966;6.878;2024-01-07T05:47:41;32.93;;;17.63;;
43529;SDS011;55654;50.966;6.878;2024-01-07T05:50:07;31.37;;;18.00;;
43529;SDS011;55654;50.966;6.878;2024-01-07T05:52:33;33.57;;;18.13;;
43529;SDS011;55654;50.966;6.878;2024-01-07T05:54:59;33.23;;;16.77;;
43529;SDS011;55654;50.966;6.878;2024-01-07T05:57:26;33.03;;;17.90;;
43529;SDS011;55654;50.966;6.878;2024-01-07T05:59:52;35.10;;;17.57;;
43529;SDS011;55654;50.966;6.878;2024-01-07T06:02:18;35.27;;;18.53;;
43529;SDS011;55654;50.966;6.878;2024-01-07T06:04:44;33.63;;;18.93;;
43529;SDS011;55654;50.966;6.878;2024-01-07T06:07:10;34.87;;;19.67;;
43529;SDS011;55654;50.966;6.878;2024-01-07T06:09:36;42.37;;;20.43;;
43529;SDS011;55654;50.966;6.878;2024-01-07T06:12:02;37.83;;;19.37;;
43529;SDS011;55654;50.966;6.878;2024-01-07T06:14:28;38.23;;;20.33;;
43529;SDS011;55654;50.966;6.878;2024-01-07T06:16:54;35.97;;;18.60;;
43529;SDS011;55654;50.966;6.878;2024-01-07T06:19:20;39.30;;;19.33;;
43529;SDS011;55654;50.966;6.878;2024-01-07T06:21:46;36.83;;;17.87;;
43529;SDS011;55654;50.966;6.878;2024-01-07T06:24:12;34.17;;;19.33;;
43529;SDS011;55654;50.966;6.878;2024-01-07T06:26:39;36.00;;;19.03;;
43529;SDS011;55654;50.966;6.878;2024-01-07T06:29:07;30.87;;;17.93;;
43529;SDS011;55654;50.966;6.878;2024-01-07T06:31:42;31.13;;;17.73;;
43529;SDS011;55654;50.966;6.878;2024-01-07T06:34:09;34.45;;;18.55;;
43529;SDS011;55654;50.966;6.878;2024-01-07T06:36:38;32.60;;;18.70;;
43529;SDS011;55654;50.966;6.878;2024-01-07T06:39:04;34.33;;;19.13;;
43529;SDS011;55654;50.966;6.878;2024-01-07T06:41:30;32.03;;;17.90;;
43529;SDS011;55654;50.966;6.878;2024-01-07T06:43:56;31.43;;;17.67;;
43529;SDS011;55654;50.966;6.878;2024-01-07T06:46:22;33.20;;;18.27;;
43529;SDS011;55654;50.966;6.878;2024-01-07T06:48:48;33.50;;;17.90;;
43529;SDS011;55654;50.966;6.878;2024-01-07T06:51:14;32.97;;;18.27;;
43529;SDS011;55654;50.966;6.878;2024-01-07T06:53:40;33.23;;;18.17;;
43529;SDS011;55654;50.966;6.878;2024-01-07T06:56:06;34.90;;;18.73;;
43529;SDS011;55654;50.966;6.878;2024-01-07T06:58:32;33.13;;;18.20;;
43529;SDS011;55654;50.966;6.878;2024-01-07T07:00:58;35.57;;;17.40;;
43529;SDS011;55654;50.966;6.878;2024-01-07T07:03:24;34.07;;;16.83;;
43529;SDS011;55654;50.966;6.878;2024-01-07T07:05:53;32.77;;;17.27;;
43529;SDS011;55654;50.966;6.878;2024-01-07T07:08:19;29.03;;;15.90;;
43529;SDS011;55654;50.966;6.878;2024-01-07T07:10:45;33.63;;;16.50;;
43529;SDS011;55654;50.966;6.878;2024-01-07T07:13:11;29.23;;;16.23;;
43529;SDS011;55654;50.966;6.878;2024-01-07T07:15:37;31.07;;;16.27;;
43529;SDS011;55654;50.966;6.878;2024-01-07T07:18:03;30.40;;;16.57;;
43529;SDS011;55654;50.966;6.878;2024-01-07T07:20:29;33.70;;;16.97;;
43529;SDS011;55654;50.966;6.878;2024-01-07T07:22:55;30.00;;;17.63;;
43529;SDS011;55654;50.966;6.878;2024-01-07T07:25:22;29.33;;;16.33;;
43529;SDS011;55654;50.966;6.878;2024-01-07T07:27:48;28.40;;;15.37;;
43529;SDS011;55654;50.966;6.878;2024-01-07T07:30:14;31.43;;;17.40;;
43529;SDS011;55654;50.966;6.878;2024-01-07T07:32:40;27.53;;;15.53;;
43529;SDS011;55654;50.966;6.878;2024-01-07T07:35:06;31.30;;;17.20;;
43529;SDS011;55654;50.966;6.878;2024-01-07T07:37:32;32.17;;;17.57;;
43529;SDS011;55654;50.966;6.878;2024-01-07T07:39:58;31.33;;;17.13;;
43529;SDS011;55654;50.966;6.878;2024-01-07T07:42:24;35.03;;;17.20;;
43529;SDS011;55654;50.966;6.878;2024-01-07T07:44:51;27.80;;;15.30;;
43529;SDS011;55654;50.966;6.878;2024-01-07T07:47:16;25.50;;;13.83;;
43529;SDS011;55654;50.966;6.878;2024-01-07T07:49:45;28.00;;;15.40;;
43529;SDS011;55654;50.966;6.878;2024-01-07T07:52:11;27.77;;;15.27;;
43529;SDS011;55654;50.966;6.878;2024-01-07T07:54:40;25.40;;;14.10;;
43529;SDS011;55654;50.966;6.878;2024-01-07T07:57:06;25.73;;;14.17;;
43529;SDS011;55654;50.966;6.878;2024-01-07T07:59:32;23.90;;;14.33;;
43529;SDS011;55654;50.966;6.878;2024-01-07T08:01:58;27.30;;;14.30;;
43529;SDS011;55654;50.966;6.878;2024-01-07T08:04:24;25.00;;;14.57;;
43529;SDS011;55654;50.966;6.878;2024-01-07T08:06:51;29.47;;;15.37;;
43529;SDS011;55654;50.966;6.878;2024-01-07T08:09:17;26.13;;;14.73;;
43529;SDS011;55654;50.966;6.878;2024-01-07T08:11:43;31.93;;;15.20;;
43529;SDS011;55654;50.966;6.878;2024-01-07T08:14:09;25.93;;;14.70;;
43529;SDS011;55654;50.966;6.878;2024-01-07T08:16:35;28.13;;;14.77;;
43529;SDS011;55654;50.966;6.878;2024-01-07T08:19:01;26.37;;;13.67;;
43529;SDS011;55654;50.966;6.878;2024-01-07T08:21:27;23.50;;;13.83;;
43529;SDS011;55654;50.966;6.878;2024-01-07T08:23:53;28.53;;;15.63;;
43529;SDS011;55654;50.966;6.878;2024-01-07T08:26:19;26.90;;;15.20;;
43529;SDS011;55654;50.966;6.878;2024-01-07T08:28:48;29.20;;;15.60;;
43529;SDS011;55654;50.966;6.878;2024-01-07T08:31:14;28.97;;;15.37;;
43529;SDS011;55654;50.966;6.878;2024-01-07T08:33:40;27.07;;;15.87;;
43529;SDS011;55654;50.966;6.878;2024-01-07T08:36:08;26.43;;;14.43;;
43529;SDS011;55654;50.966;6.878;2024-01-07T08:38:34;24.70;;;13.90;;
43529;SDS011;55654;50.966;6.878;2024-01-07T08:41:00;26.73;;;14.73;;
43529;SDS011;55654;50.966;6.878;2024-01-07T08:43:26;28.23;;;15.27;;
43529;SDS011;55654;50.966;6.878;2024-01-07T08:45:52;29.80;;;16.23;;
43529;SDS011;55654;50.966;6.878;2024-01-07T08:48:18;27.50;;;15.60;;
43529;SDS011;55654;50.966;6.878;2024-01-07T08:50:44;30.70;;;16.63;;
43529;SDS011;55654;50.966;6.878;2024-01-07T08:53:11;29.10;;;16.13;;
43529;SDS011;55654;50.966;6.878;2024-01-07T08:55:37;32.93;;;18.77;;
43529;SDS011;55654;50.966;6.878;2024-01-07T08:58:03;35.10;;;18.07;;
43529;SDS011;55654;50.966;6.878;2024-01-07T09:00:31;33.23;;;17.67;;
43529;SDS011;55654;50.966;6.878;2024-01-07T09:02:57;33.03;;;18.70;;
43529;SDS011;55654;50.966;6.878;2024-01-07T09:05:23;32.03;;;17.20;;
43529;SDS011;55654;50.966;6.878;2024-01-07T09:07:49;32.43;;;17.83;;
43529;SDS011;55654;50.966;6.878;2024-01-07T09:10:15;31.07;;;16.93;;
43529;SDS011;55654;50.966;6.878;2024-01-07T09:12:43;31.87;;;17.73;;
43529;SDS011;55654;50.966;6.878;2024-01-07T09:15:09;33.13;;;19.07;;
43529;SDS011;55654;50.966;6.878;2024-01-07T09:17:35;36.00;;;19.00;;
43529;SDS011;55654;50.966;6.878;2024-01-07T09:20:03;32.60;;;17.87;;
43529;SDS011;55654;50.966;6.878;2024-01-07T09:22:32;30.93;;;16.27;;
43529;SDS011;55654;50.966;6.878;2024-01-07T09:24:58;28.77;;;16.10;;
43529;SDS011;55654;50.966;6.878;2024-01-07T09:27:26;30.73;;;17.07;;
43529;SDS011;55654;50.966;6.878;2024-01-07T09:29:52;29.87;;;16.00;;
43529;SDS011;55654;50.966;6.878;2024-01-07T09:32:20;26.53;;;15.13;;
43529;SDS011;55654;50.966;6.878;2024-01-07T09:34:46;27.50;;;15.07;;
43529;SDS011;55654;50.966;6.878;2024-01-07T09:37:12;25.80;;;13.20;;
43529;SDS011;55654;50.966;6.878;2024-01-07T09:39:41;25.47;;;13.97;;
43529;SDS011;55654;50.966;6.878;2024-01-07T09:42:09;26.30;;;14.33;;
43529;SDS011;55654;50.966;6.878;2024-01-07T09:44:38;30.10;;;14.67;;
43529;SDS011;55654;50.966;6.878;2024-01-07T09:47:04;25.03;;;14.67;;
43529;SDS011;55654;50.966;6.878;2024-01-07T09:49:31;26.67;;;13.43;;
43529;SDS011;55654;50.966;6.878;2024-01-07T09:51:58;24.37;;;13.80;;
43529;SDS011;55654;50.966;6.878;2024-01-07T09:54:26;26.87;;;14.97;;
43529;SDS011;55654;50.966;6.878;2024-01-07T09:56:57;25.97;;;14.90;;
43529;SDS011;55654;50.966;6.878;2024-01-07T09:59:25;25.20;;;14.18;;
43529;SDS011;55654;50.966;6.878;2024-01-07T10:01:51;24.33;;;14.70;;
43529;SDS011;55654;50.966;6.878;2024-01-07T10:04:19;26.23;;;15.07;;
43529;SDS011;55654;50.966;6.878;2024-01-07T10:06:45;26.00;;;14.73;;
43529;SDS011;55654;50.966;6.878;2024-01-07T10:09:17;30.37;;;14.53;;
43529;SDS011;55654;50.966;6.878;2024-01-07T10:11:46;23.23;;;14.25;;
43529;SDS011;55654;50.966;6.878;2024-01-07T10:14:12;21.37;;;13.33;;
43529;SDS011;55654;50.966;6.878;2024-01-07T10:16:41;16.93;;;9.93;;
43529;SDS011;55654;50.966;6.878;2024-01-07T10:22:08;15.93;;;9.87;;
43529;SDS011;55654;50.966;6.878;2024-01-07T10:24:37;20.57;;;10.03;;
43529;SDS011;55654;50.966;6.878;2024-01-07T10:27:04;15.93;;;10.40;;
43529;SDS011;55654;50.966;6.878;2024-01-07T10:29:31;18.80;;;10.73;;
43529;SDS011;55654;50.966;6.878;2024-01-07T10:31:57;19.57;;;11.47;;
43529;SDS011;55654;50.966;6.878;2024-01-07T10:34:24;19.80;;;11.47;;
43529;SDS011;55654;50.966;6.878;2024-01-07T10:36:53;21.67;;;12.90;;
43529;SDS011;55654;50.966;6.878;2024-01-07T10:39:21;22.90;;;13.13;;
43529;SDS011;55654;50.966;6.878;2024-01-07T10:41:47;24.07;;;12.93;;
43529;SDS011;55654;50.966;6.878;2024-01-07T10:44:13;23.03;;;13.20;;
43529;SDS011;55654;50.966;6.878;2024-01-07T10:46:39;22.30;;;14.13;;
43529;SDS011;55654;50.966;6.878;2024-01-07T10:52:04;25.63;;;13.93;;
43529;SDS011;55654;50.966;6.878;2024-01-07T10:54:31;26.40;;;14.87;;
43529;SDS011;55654;50.966;6.878;2024-01-07T10:57:27;23.50;;;13.98;;
43529;SDS011;55654;50.966;6.878;2024-01-07T10:59:50;25.63;;;15.43;;
43529;SDS011;55654;50.966;6.878;2024-01-07T11:02:17;27.07;;;14.80;;
43529;SDS011;55654;50.966;6.878;2024-01-07T11:05:02;24.47;;;14.67;;
43529;SDS011;55654;50.966;6.878;2024-01-07T11:13:40;29.43;;;14.77;;
43529;SDS011;55654;50.966;6.878;2024-01-07T11:21:41;26.60;;;14.30;;
43529;SDS011;55654;50.966;6.878;2024-01-07T11:24:10;26.93;;;15.70;;
43529;SDS011;55654;50.966;6.878;2024-01-07T11:27:01;27.73;;;15.30;;
43529;SDS011;55654;50.966;6.878;2024-01-07T11:29:27;28.00;;;14.70;;
43529;SDS011;55654;50.966;6.878;2024-01-07T11:31:55;26.63;;;14.23;;
43529;SDS011;55654;50.966;6.878;2024-01-07T11:55:20;23.60;;;13.43;;
43529;SDS011;55654;50.966;6.878;2024-01-07T11:57:48;26.93;;;13.63;;
43529;SDS011;55654;50.966;6.878;2024-01-07T12:00:14;22.63;;;13.00;;
43529;SDS011;55654;50.966;6.878;2024-01-07T12:02:40;20.47;;;13.37;;
43529;SDS011;55654;50.966;6.878;2024-01-07T12:05:06;24.00;;;13.20;;
43529;SDS011;55654;50.966;6.878;2024-01-07T12:07:32;23.07;;;13.43;;
43529;SDS011;55654;50.966;6.878;2024-01-07T12:10:02;20.23;;;12.13;;
43529;SDS011;55654;50.966;6.878;2024-01-07T12:15:52;22.75;;;12.93;;
43529;SDS011;55654;50.966;6.878;2024-01-07T12:18:23;19.40;;;12.07;;
43529;SDS011;55654;50.966;6.878;2024-01-07T12:20:57;20.83;;;12.80;;
43529;SDS011;55654;50.966;6.878;2024-01-07T12:25:50;19.07;;;10.97;;
43529;SDS011;55654;50.966;6.878;2024-01-07T12:28:21;20.80;;;11.73;;
43529;SDS011;55654;50.966;6.878;2024-01-07T12:30:47;17.60;;;10.73;;
43529;SDS011;55654;50.966;6.878;2024-01-07T12:33:18;19.47;;;11.10;;
43529;SDS011;55654;50.966;6.878;2024-01-07T12:35:45;17.87;;;10.20;;
43529;SDS011;55654;50.966;6.878;2024-01-07T12:38:11;17.33;;;8.97;;
43529;SDS011;55654;50.966;6.878;2024-01-07T12:40:37;15.87;;;9.90;;
43529;SDS011;55654;50.966;6.878;2024-01-07T12:43:04;15.43;;;9.10;;
43529;SDS011;55654;50.966;6.878;2024-01-07T12:45:31;16.13;;;9.53;;
43529;SDS011;55654;50.966;6.878;2024-01-07T12:48:00;17.23;;;9.17;;
43529;SDS011;55654;50.966;6.878;2024-01-07T12:50:27;15.80;;;9.20;;
43529;SDS011;55654;50.966;6.878;2024-01-07T12:52:55;18.23;;;10.47;;
43529;SDS011;55654;50.966;6.878;2024-01-07T12:55:24;18.43;;;11.10;;
43529;SDS011;55654;50.966;6.878;2024-01-07T12:57:50;17.37;;;10.47;;
43529;SDS011;55654;50.966;6.878;2024-01-07T13:00:19;18.23;;;10.53;;
43529;SDS011;55654;50.966;6.878;2024-01-07T13:02:45;17.70;;;10.27;;
43529;SDS011;55654;50.966;6.878;2024-01-07T13:05:11;14.47;;;8.30;;
43529;SDS011;55654;50.966;6.878;2024-01-07T13:07:37;17.77;;;9.83;;
43529;SDS011;55654;50.966;6.878;2024-01-07T13:10:03;15.40;;;8.67;;
43529;SDS011;55654;50.966;6.878;2024-01-07T13:12:29;13.07;;;7.40;;
43529;SDS011;55654;50.966;6.878;2024-01-07T13:14:55;16.37;;;8.67;;
43529;SDS011;55654;50.966;6.878;2024-01-07T13:17:21;14.10;;;7.53;;
43529;SDS011;55654;50.966;6.878;2024-01-07T13:19:47;10.53;;;7.07;;
43529;SDS011;55654;50.966;6.878;2024-01-07T13:22:13;15.60;;;7.53;;
43529;SDS011;55654;50.966;6.878;2024-01-07T13:24:39;10.93;;;6.43;;
43529;SDS011;55654;50.966;6.878;2024-01-07T13:27:06;10.73;;;7.00;;
43529;SDS011;55654;50.966;6.878;2024-01-07T13:29:33;11.80;;;7.27;;
43529;SDS011;55654;50.966;6.878;2024-01-07T13:32:00;12.63;;;7.40;;
43529;SDS011;55654;50.966;6.878;2024-01-07T13:34:26;10.37;;;6.50;;
43529;SDS011;55654;50.966;6.878;2024-01-07T13:36:52;12.00;;;7.33;;
43529;SDS011;55654;50.966;6.878;2024-01-07T13:39:19;10.00;;;6.23;;
43529;SDS011;55654;50.966;6.878;2024-01-07T13:41:46;13.70;;;7.57;;
43529;SDS011;55654;50.966;6.878;2024-01-07T13:44:12;13.90;;;8.23;;
43529;SDS011;55654;50.966;6.878;2024-01-07T13:46:47;14.10;;;8.13;;
43529;SDS011;55654;50.966;6.878;2024-01-07T13:49:14;11.40;;;8.00;;
43529;SDS011;55654;50.966;6.878;2024-01-07T13:51:40;9.83;;;7.07;;
43529;SDS011;55654;50.966;6.878;2024-01-07T13:54:06;12.00;;;7.50;;
43529;SDS011;55654;50.966;6.878;2024-01-07T13:56:35;9.77;;;6.07;;
43529;SDS011;55654;50.966;6.878;2024-01-07T13:59:02;8.67;;;5.83;;
43529;SDS011;55654;50.966;6.878;2024-01-07T14:01:28;12.50;;;7.30;;
43529;SDS011;55654;50.966;6.878;2024-01-07T14:03:55;11.23;;;7.23;;
43529;SDS011;55654;50.966;6.878;2024-01-07T14:06:21;12.07;;;7.57;;
43529;SDS011;55654;50.966;6.878;2024-01-07T14:08:47;13.63;;;7.73;;
43529;SDS011;55654;50.966;6.878;2024-01-07T14:11:13;11.03;;;7.23;;
43529;SDS011;55654;50.966;6.878;2024-01-07T14:13:39;11.43;;;6.53;;
43529;SDS011;55654;50.966;6.878;2024-01-07T14:16:05;11.07;;;6.90;;
43529;SDS011;55654;50.966;6.878;2024-01-07T14:18:31;9.47;;;5.93;;
43529;SDS011;55654;50.966;6.878;2024-01-07T14:20:57;9.87;;;5.77;;
43529;SDS011;55654;50.966;6.878;2024-01-07T14:23:23;10.27;;;5.93;;
43529;SDS011;55654;50.966;6.878;2024-01-07T14:25:52;11.77;;;6.87;;
43529;SDS011;55654;50.966;6.878;2024-01-07T14:28:20;11.60;;;7.00;;
43529;SDS011;55654;50.966;6.878;2024-01-07T14:30:46;10.50;;;6.77;;
43529;SDS011;55654;50.966;6.878;2024-01-07T14:33:12;11.13;;;6.37;;
43529;SDS011;55654;50.966;6.878;2024-01-07T14:35:38;9.67;;;6.07;;
43529;SDS011;55654;50.966;6.878;2024-01-07T14:38:04;7.83;;;4.90;;
43529;SDS011;55654;50.966;6.878;2024-01-07T14:40:30;7.27;;;4.23;;
43529;SDS011;55654;50.966;6.878;2024-01-07T14:42:56;6.83;;;3.87;;
43529;SDS011;55654;50.966;6.878;2024-01-07T14:45:26;7.53;;;4.10;;
43529;SDS011;55654;50.966;6.878;2024-01-07T14:47:55;6.50;;;3.97;;
43529;SDS011;55654;50.966;6.878;2024-01-07T14:50:21;6.00;;;3.97;;
43529;SDS011;55654;50.966;6.878;2024-01-07T14:52:47;8.50;;;3.90;;
43529;SDS011;55654;50.966;6.878;2024-01-07T14:55:15;6.97;;;4.13;;
43529;SDS011;55654;50.966;6.878;2024-01-07T14:57:41;7.90;;;3.93;;
43529;SDS011;55654;50.966;6.878;2024-01-07T15:00:10;7.20;;;4.97;;
43529;SDS011;55654;50.966;6.878;2024-01-07T15:02:36;10.33;;;4.83;;
43529;SDS011;55654;50.966;6.878;2024-01-07T15:05:02;7.57;;;4.73;;
43529;SDS011;55654;50.966;6.878;2024-01-07T15:07:28;8.73;;;4.30;;
43529;SDS011;55654;50.966;6.878;2024-01-07T15:09:54;7.87;;;4.80;;
43529;SDS011;55654;50.966;6.878;2024-01-07T15:12:20;6.50;;;4.50;;
43529;SDS011;55654;50.966;6.878;2024-01-07T15:14:47;7.33;;;3.80;;